createdAt,value
2023-01-04T00:00:59.394Z,98074.00
2023-01-04T00:06:03.425Z,98080.00
2023-01-04T00:11:11.292Z,98081.00
2023-01-04T00:16:16.107Z,98075.00
2023-01-04T00:21:28.264Z,98071.00
2023-01-04T00:26:31.944Z,98058.00
2023-01-04T00:31:34.081Z,98051.00
2023-01-04T00:36:35.125Z,98060.00
2023-01-04T00:41:59.130Z,98061.00
2023-01-04T00:47:02.877Z,98056.00
2023-01-04T00:52:04.057Z,98049.00
2023-01-04T00:57:06.472Z,98044.00
2023-01-04T01:02:07.649Z,98031.00
2023-01-04T01:07:08.419Z,98021.00
2023-01-04T01:12:09.328Z,98020.00
2023-01-04T01:17:10.143Z,98018.00
2023-01-04T01:22:11.138Z,98007.00
2023-01-04T01:27:11.900Z,98001.00
2023-01-04T01:32:12.780Z,97998.00
2023-01-04T01:37:13.549Z,97994.00
2023-01-04T01:42:22.664Z,97988.00
2023-01-04T01:47:27.941Z,97988.00
2023-01-04T01:52:33.369Z,98000.00
2023-01-04T01:57:36.518Z,97993.00
2023-01-04T02:02:44.808Z,97986.00
2023-01-04T02:07:47.004Z,97969.00
2023-01-04T02:12:49.749Z,97960.00
2023-01-04T02:18:13.546Z,97946.00
2023-01-04T02:27:49.819Z,97947.00
2023-01-04T02:33:04.384Z,97943.00
2023-01-04T02:38:22.823Z,97938.00
2023-01-04T02:43:51.821Z,97934.00
2023-01-04T02:49:11.050Z,97923.00
2023-01-04T02:54:24.242Z,97911.00
2023-01-04T02:59:58.859Z,97902.00
2023-01-04T03:08:54.208Z,97899.00
2023-01-04T03:14:32.712Z,97879.00
2023-01-04T03:19:53.954Z,97866.00
2023-01-04T03:25:14.434Z,97857.00
2023-01-04T03:30:37.855Z,97853.00
2023-01-04T03:35:47.956Z,97842.00
2023-01-04T03:41:20.338Z,97842.00
2023-01-04T03:46:50.031Z,97826.00
2023-01-04T03:51:54.914Z,97824.00
2023-01-04T03:56:57.208Z,97821.00
2023-01-04T04:01:58.395Z,97809.00
2023-01-04T04:07:17.914Z,97807.00
2023-01-04T04:12:18.680Z,97815.00
2023-01-04T04:17:19.530Z,97805.00
2023-01-04T04:22:20.268Z,97807.00
2023-01-04T04:27:21.028Z,97789.00
2023-01-04T04:32:21.950Z,97793.00
2023-01-04T04:37:23.125Z,97798.00
2023-01-04T04:42:23.854Z,97795.00
2023-01-04T04:47:24.662Z,97788.00
2023-01-04T04:52:25.398Z,97793.00
2023-01-04T04:57:26.169Z,97781.00
2023-01-04T05:02:27.175Z,97769.00
2023-01-04T05:07:28.111Z,97771.00
2023-01-04T05:12:47.248Z,97744.00
2023-01-04T05:17:48.158Z,97762.00
2023-01-04T05:22:48.960Z,97759.00
2023-01-04T05:27:49.963Z,97763.00
2023-01-04T05:32:50.739Z,97764.00
2023-01-04T05:37:51.513Z,97772.00
2023-01-04T05:42:52.555Z,97752.00
2023-01-04T05:47:53.575Z,97756.00
2023-01-04T05:52:54.377Z,97752.00
2023-01-04T05:57:55.103Z,97755.00
2023-01-04T06:02:56.500Z,97757.00
2023-01-04T06:07:57.473Z,97754.00
2023-01-04T06:12:58.319Z,97746.00
2023-01-04T06:17:59.154Z,97731.00
2023-01-04T06:22:59.909Z,97744.00
2023-01-04T06:28:00.902Z,97728.00
2023-01-04T06:33:01.711Z,97731.00
2023-01-04T06:38:02.455Z,97722.00
2023-01-04T06:43:03.815Z,97717.00
2023-01-04T06:48:09.076Z,97717.00
2023-01-04T06:53:10.326Z,97714.00
2023-01-04T06:58:11.558Z,97700.00
2023-01-04T07:03:15.885Z,97691.00
2023-01-04T07:08:17.280Z,97669.00
2023-01-04T07:13:18.019Z,97659.00
2023-01-04T07:18:18.963Z,97658.00
2023-01-04T07:23:19.745Z,97640.00
2023-01-04T07:28:39.149Z,97650.00
2023-01-04T07:33:40.014Z,97645.00
2023-01-04T07:38:42.786Z,97650.00
2023-01-04T07:43:45.028Z,97646.00
2023-01-04T07:48:45.889Z,97640.00
2023-01-04T07:53:46.642Z,97639.00
2023-01-04T07:58:47.574Z,97650.00
2023-01-04T08:03:48.605Z,97641.00
2023-01-04T08:08:49.369Z,97647.00
2023-01-04T08:13:50.752Z,97633.00
2023-01-04T08:18:57.376Z,97616.00
2023-01-04T08:23:58.117Z,97639.00
2023-01-04T08:28:59.370Z,97645.00
2023-01-04T08:34:05.436Z,97640.00
2023-01-04T08:39:06.301Z,97648.00
2023-01-04T08:44:07.521Z,97641.00
2023-01-04T08:49:08.891Z,97627.00
2023-01-04T08:54:10.498Z,97638.00
2023-01-04T08:59:12.465Z,97647.00
2023-01-04T09:04:13.435Z,97636.00
2023-01-04T09:09:14.794Z,97620.00
2023-01-04T09:14:15.551Z,97618.00
2023-01-04T09:19:21.709Z,97623.00
2023-01-04T09:24:23.352Z,97639.00
2023-01-04T09:29:25.273Z,97639.00
2023-01-04T09:34:26.134Z,97645.00
2023-01-04T09:39:29.535Z,97642.00
2023-01-04T09:50:35.957Z,97632.00
2023-01-04T09:55:47.538Z,97622.00
2023-01-04T10:00:57.865Z,97623.00
2023-01-04T10:06:00.578Z,97619.00
2023-01-04T10:11:28.110Z,97623.00
2023-01-04T10:25:22.989Z,97605.00
2023-01-04T10:30:57.988Z,97590.00
2023-01-04T10:35:59.283Z,97584.00
2023-01-04T10:41:07.892Z,97574.00
2023-01-04T10:46:18.328Z,97554.00
2023-01-04T10:51:52.200Z,97555.00
2023-01-04T10:57:41.708Z,97554.00
2023-01-04T11:04:32.097Z,97576.00
2023-01-04T11:09:49.378Z,97559.00
2023-01-04T11:14:50.883Z,97558.00
2023-01-04T11:19:52.590Z,97545.00
2023-01-04T11:25:33.617Z,97539.00
2023-01-04T11:30:47.024Z,97522.00
2023-01-04T11:35:53.639Z,97528.00
2023-01-04T11:41:05.978Z,97511.00
2023-01-04T11:47:17.803Z,97524.00
2023-01-04T11:52:35.904Z,97509.00
2023-01-04T11:57:36.745Z,97508.00
2023-01-04T12:08:33.111Z,97483.00
2023-01-04T12:13:33.949Z,97474.00
2023-01-04T12:18:38.855Z,97480.00
2023-01-04T12:23:40.604Z,97483.00
2023-01-04T12:28:47.468Z,97466.00
2023-01-04T12:34:37.393Z,97458.00
2023-01-04T12:39:43.794Z,97460.00
2023-01-04T12:45:13.191Z,97446.00
2023-01-04T12:50:27.022Z,97448.00
2023-01-04T12:56:09.981Z,97440.00
2023-01-04T13:01:23.021Z,97443.00
2023-01-04T13:06:28.258Z,97422.00
2023-01-04T13:12:03.717Z,97426.00
2023-01-04T13:17:25.521Z,97416.00
2023-01-04T13:22:30.300Z,97413.00
2023-01-04T13:27:31.230Z,97421.00
2023-01-04T13:32:59.502Z,97415.00
2023-01-04T13:38:25.100Z,97410.00
2023-01-04T13:44:18.693Z,97410.00
2023-01-04T13:49:19.466Z,97413.00
2023-01-04T13:54:23.399Z,97399.00
2023-01-04T13:59:24.322Z,97396.00
2023-01-04T14:04:27.953Z,97401.00
2023-01-04T14:09:41.476Z,97405.00
2023-01-04T14:16:09.680Z,97394.00
2023-01-04T14:21:16.616Z,97390.00
2023-01-04T14:26:32.014Z,97368.00
2023-01-04T14:31:35.662Z,97369.00
2023-01-04T14:36:39.208Z,97346.00
2023-01-04T14:41:52.930Z,97357.00
2023-01-04T14:46:55.935Z,97359.00
2023-01-04T14:52:01.893Z,97363.00
2023-01-04T14:57:02.764Z,97358.00
2023-01-04T15:02:04.099Z,97347.00
2023-01-04T15:07:05.607Z,97353.00
2023-01-04T15:12:06.651Z,97363.00
2023-01-04T15:17:07.371Z,97357.00
2023-01-04T15:22:08.133Z,97348.00
2023-01-04T15:27:08.969Z,97333.00
2023-01-04T15:32:09.905Z,97347.00
2023-01-04T15:37:10.754Z,97347.00
2023-01-04T15:42:30.918Z,97357.00
2023-01-04T15:47:33.071Z,97336.00
2023-01-04T15:52:33.990Z,97341.00
2023-01-04T15:57:40.058Z,97329.00
2023-01-04T16:02:43.299Z,97319.00
2023-01-04T16:07:44.173Z,97322.00
2023-01-04T16:12:48.673Z,97323.00
2023-01-04T16:17:53.940Z,97324.00
2023-01-04T16:22:54.730Z,97309.00
2023-01-04T16:27:55.541Z,97298.00
2023-01-04T16:32:56.359Z,97295.00
2023-01-04T16:37:59.060Z,97296.00
2023-01-04T16:42:59.885Z,97285.00
2023-01-04T16:48:00.840Z,97277.00
2023-01-04T16:53:01.625Z,97282.00
2023-01-04T16:58:02.530Z,97287.00
2023-01-04T17:03:03.420Z,97281.00
2023-01-04T17:08:04.963Z,97276.00
2023-01-04T17:13:05.961Z,97279.00
2023-01-04T17:18:08.758Z,97266.00
2023-01-04T17:23:09.503Z,97276.00
2023-01-04T17:28:10.349Z,97287.00
2023-01-04T17:33:11.255Z,97282.00
2023-01-04T17:38:12.107Z,97274.00
2023-01-04T17:43:12.944Z,97278.00
2023-01-04T17:48:13.742Z,97278.00
2023-01-04T17:53:14.558Z,97274.00
2023-01-04T17:58:19.892Z,97271.00
2023-01-04T18:03:22.610Z,97266.00
2023-01-04T18:08:23.420Z,97278.00
2023-01-04T18:13:24.662Z,97275.00
2023-01-04T18:18:25.794Z,97268.00
2023-01-04T18:23:28.397Z,97260.00
2023-01-04T18:28:29.235Z,97261.00
2023-01-04T18:33:30.009Z,97259.00
2023-01-04T18:38:31.613Z,97267.00
2023-01-04T18:43:35.074Z,97250.00
2023-01-04T18:48:36.452Z,97233.00
2023-01-04T18:53:37.686Z,97259.00
2023-01-04T18:58:38.505Z,97247.00
2023-01-04T19:03:41.306Z,97247.00
2023-01-04T19:08:43.139Z,97249.00
2023-01-04T19:13:44.331Z,97260.00
2023-01-04T19:18:45.081Z,97248.00
2023-01-04T19:23:47.214Z,97263.00
2023-01-04T19:28:48.685Z,97277.00
2023-01-04T19:33:49.458Z,97260.00
2023-01-04T19:38:50.208Z,97263.00
2023-01-04T19:43:51.049Z,97257.00
2023-01-04T19:48:51.841Z,97262.00
2023-01-04T19:53:52.639Z,97275.00
2023-01-04T19:58:53.413Z,97283.00
2023-01-04T20:03:54.201Z,97292.00
2023-01-04T20:08:54.976Z,97296.00
2023-01-04T20:13:56.200Z,97304.00
2023-01-04T20:18:57.260Z,97247.00
2023-01-04T20:23:59.815Z,97250.00
2023-01-04T20:29:02.634Z,97258.00
2023-01-04T20:34:03.435Z,97259.00
2023-01-04T20:39:04.527Z,97262.00
2023-01-04T20:44:05.434Z,97272.00
2023-01-04T20:49:06.130Z,97262.00
2023-01-04T20:54:07.019Z,97253.00
2023-01-04T20:59:07.960Z,97241.00
2023-01-04T21:04:08.766Z,97243.00
2023-01-04T21:09:09.521Z,97273.00
2023-01-04T21:14:11.278Z,97261.00
2023-01-04T21:19:12.017Z,97268.00
2023-01-04T21:24:13.616Z,97267.00
2023-01-04T21:29:14.358Z,97272.00
2023-01-04T21:34:18.285Z,97280.00
2023-01-04T21:39:22.035Z,97272.00
2023-01-04T21:44:22.987Z,97266.00
2023-01-04T21:49:24.480Z,97279.00
2023-01-04T21:54:25.385Z,97288.00
2023-01-04T21:59:26.164Z,97280.00
2023-01-04T22:04:27.107Z,97270.00
2023-01-04T22:09:27.877Z,97273.00
2023-01-04T22:14:29.286Z,97259.00
2023-01-04T22:19:30.143Z,97261.00
2023-01-04T22:24:37.213Z,97264.00
2023-01-04T22:29:38.769Z,97263.00
2023-01-04T22:34:39.527Z,97261.00
2023-01-04T22:39:40.313Z,97266.00
2023-01-04T22:44:41.205Z,97265.00
2023-01-04T22:49:42.053Z,97258.00
2023-01-04T22:54:42.796Z,97245.00
2023-01-04T22:59:43.563Z,97243.00
2023-01-04T23:04:44.357Z,97239.00
2023-01-04T23:09:45.132Z,97249.00
2023-01-04T23:14:46.000Z,97247.00
2023-01-04T23:19:46.942Z,97250.00
2023-01-04T23:24:49.283Z,97223.00
2023-01-04T23:29:50.006Z,97229.00
2023-01-04T23:34:50.971Z,97224.00
2023-01-04T23:39:51.679Z,97243.00
2023-01-04T23:44:52.599Z,97219.00
2023-01-04T23:49:53.312Z,97212.00
2023-01-04T23:54:54.115Z,97210.00
2023-01-04T23:59:54.932Z,97206.00
